Time;durP1;ratioP1;P1;durP2;ratioP2;P2;SDS_P1;SDS_P2;PMS_P1;PMS_P2;Temp;Humidity;BMP_temperature;BMP_pressure;BME280_temperature;BME280_humidity;BME280_pressure;Samples;Min_cycle;Max_cycle;Signal;HPM_P1;HPM_P2
2023/04/04 00:02:07;;;;;;;2.13;1.08;;;2.70;94.90;;;;;;5013066;28;20465;-67
2023/04/04 00:04:33;;;;;;;1.02;0.75;;;2.70;94.70;;;;;;5013215;28;20026;-67
2023/04/04 00:06:58;;;;;;;0.50;0.43;;;2.70;95.10;;;;;;4995904;28;20080;-67
2023/04/04 00:09:24;;;;;;;1.67;0.82;;;2.60;95.20;;;;;;5004395;28;20045;-64
2023/04/04 00:11:50;;;;;;;1.30;0.55;;;2.60;95.40;;;;;;4993965;28;20022;-65
2023/04/04 00:14:16;;;;;;;1.38;1.08;;;2.50;95.70;;;;;;4995863;28;20479;-67
2023/04/04 00:16:41;;;;;;;0.98;0.77;;;2.50;95.60;;;;;;5026282;28;20060;-67
2023/04/04 00:19:10;;;;;;;1.65;0.95;;;2.50;95.20;;;;;;5012472;28;20489;-67
2023/04/04 00:21:36;;;;;;;1.50;0.88;;;2.50;95.40;;;;;;5010195;28;20038;-67
2023/04/04 00:24:01;;;;;;;2.15;1.83;;;2.40;95.70;;;;;;5012400;28;20055;-67
2023/04/04 00:26:27;;;;;;;2.85;0.65;;;2.40;95.80;;;;;;5013560;28;20041;-68
2023/04/04 00:28:53;;;;;;;0.68;0.57;;;2.40;95.90;;;;;;5012571;28;20474;-67
2023/04/04 00:31:19;;;;;;;1.38;1.08;;;2.30;96.20;;;;;;5013154;28;20033;-67
2023/04/04 00:33:46;;;;;;;1.38;0.93;;;2.30;96.00;;;;;;5005899;28;20041;-67
2023/04/04 00:36:12;;;;;;;0.55;0.47;;;2.40;96.20;;;;;;5006650;28;20056;-67
2023/04/04 00:38:37;;;;;;;2.88;1.45;;;2.30;96.20;;;;;;5017701;28;20164;-67
2023/04/04 00:41:05;;;;;;;1.40;0.88;;;2.40;96.20;;;;;;5018090;28;20529;-67
2023/04/04 00:43:32;;;;;;;3.30;1.00;;;2.30;96.10;;;;;;4998070;28;20030;-67
2023/04/04 00:45:57;;;;;;;1.15;0.85;;;2.30;96.40;;;;;;5012788;28;20026;-67
2023/04/04 00:48:23;;;;;;;0.45;0.40;;;2.30;96.20;;;;;;5005165;28;20040;-67
2023/04/04 00:50:49;;;;;;;0.52;0.47;;;2.30;96.20;;;;;;5003114;28;20029;-67
2023/04/04 00:53:16;;;;;;;5.50;0.50;;;2.30;96.10;;;;;;5005371;28;20116;-67
2023/04/04 00:55:42;;;;;;;2.97;0.50;;;2.40;95.90;;;;;;5012518;28;20093;-67
2023/04/04 00:58:09;;;;;;;2.38;1.02;;;2.40;96.00;;;;;;5013198;28;20036;-67
2023/04/04 01:00:36;;;;;;;1.55;0.93;;;2.30;96.10;;;;;;4999549;28;20026;-67
2023/04/04 01:03:04;;;;;;;5.90;1.58;;;2.30;96.30;;;;;;5000120;28;20044;-67
2023/04/04 01:05:31;;;;;;;1.38;0.70;;;2.30;96.20;;;;;;4991917;28;20747;-67
2023/04/04 01:07:57;;;;;;;2.10;0.80;;;2.20;96.40;;;;;;4988047;28;20037;-66
2023/04/04 01:10:23;;;;;;;1.75;0.90;;;2.20;96.60;;;;;;4998914;28;20056;-67
2023/04/04 01:12:49;;;;;;;0.60;0.40;;;2.10;96.60;;;;;;5011326;28;20022;-67
2023/04/04 01:15:15;;;;;;;1.35;1.10;;;2.00;97.00;;;;;;4998682;28;20089;-67
2023/04/04 01:17:43;;;;;;;0.73;0.55;;;2.10;97.10;;;;;;4977654;28;20486;-67
2023/04/04 01:20:21;;;;;;;2.38;0.60;;;2.00;96.80;;;;;;5002616;28;20064;-67
2023/04/04 01:22:50;;;;;;;1.02;0.93;;;2.00;97.00;;;;;;5005485;28;20040;-67
2023/04/04 01:25:20;;;;;;;0.77;0.63;;;2.10;96.80;;;;;;5002656;28;20034;-67
2023/04/04 01:27:46;;;;;;;0.95;0.70;;;2.10;96.80;;;;;;4997547;28;20029;-67
2023/04/04 01:30:13;;;;;;;1.10;0.80;;;2.00;97.10;;;;;;5012225;28;20034;-67
2023/04/04 01:32:57;;;;;;;1.85;0.95;;;2.00;97.10;;;;;;5006281;28;20041;-67
2023/04/04 01:35:53;;;;;;;0.90;0.75;;;2.10;97.00;;;;;;5002605;28;20097;-67
2023/04/04 01:38:53;;;;;;;2.45;0.43;;;2.10;96.90;;;;;;5004677;28;20030;-67
2023/04/04 01:41:21;;;;;;;3.90;0.77;;;2.00;97.20;;;;;;5014290;28;20030;-67
2023/04/04 01:43:47;;;;;;;0.75;0.50;;;2.00;97.20;;;;;;5010896;28;20056;-67
2023/04/04 01:46:16;;;;;;;1.63;0.50;;;2.00;97.20;;;;;;5005264;28;20034;-67
2023/04/04 01:48:41;;;;;;;1.80;0.98;;;2.00;97.40;;;;;;5004446;28;20041;-67
2023/04/04 01:51:07;;;;;;;11.68;1.17;;;2.00;97.40;;;;;;5015875;28;20034;-67
2023/04/04 01:53:35;;;;;;;0.70;0.55;;;2.00;97.30;;;;;;4997658;28;20414;-67
2023/04/04 01:56:01;;;;;;;3.92;0.95;;;2.00;97.30;;;;;;5012057;28;20092;-67
2023/04/04 01:58:27;;;;;;;1.33;0.90;;;2.00;97.40;;;;;;5011134;28;20417;-67
2023/04/04 02:00:52;;;;;;;1.08;0.85;;;2.00;97.40;;;;;;5011507;28;20041;-67
2023/04/04 02:03:18;;;;;;;0.68;0.47;;;2.00;97.50;;;;;;5010222;28;20034;-67
2023/04/04 02:05:44;;;;;;;0.60;0.50;;;2.00;97.40;;;;;;5011620;28;20049;-67
2023/04/04 02:08:11;;;;;;;1.63;0.90;;;1.90;97.70;;;;;;5011003;28;20048;-67
2023/04/04 02:10:36;;;;;;;2.10;1.08;;;1.90;97.80;;;;;;5002264;28;20022;-67
2023/04/04 02:13:02;;;;;;;2.03;1.00;;;2.00;97.80;;;;;;5011166;28;20499;-67
2023/04/04 02:15:28;;;;;;;0.60;0.55;;;2.00;97.60;;;;;;5003651;28;20019;-67
2023/04/04 02:17:53;;;;;;;1.10;0.60;;;2.00;97.50;;;;;;4979167;28;20034;-67
2023/04/04 02:20:19;;;;;;;1.58;0.57;;;2.10;97.50;;;;;;5011465;28;20113;-67
2023/04/04 02:22:52;;;;;;;0.60;0.60;;;2.10;97.50;;;;;;5010808;28;20034;-67
2023/04/04 02:25:19;;;;;;;1.88;1.27;;;2.10;97.50;;;;;;5011183;28;20029;-67
2023/04/04 02:27:45;;;;;;;4.63;1.27;;;2.10;97.40;;;;;;4990486;28;20042;-67
2023/04/04 02:30:12;;;;;;;2.65;0.95;;;2.10;97.40;;;;;;5011062;28;20114;-67
2023/04/04 02:32:38;;;;;;;0.40;0.40;;;2.00;97.40;;;;;;5010430;28;20079;-67
2023/04/04 02:35:05;;;;;;;0.82;0.40;;;1.90;97.90;;;;;;5010403;28;20033;-67
2023/04/04 02:37:31;;;;;;;4.28;1.13;;;1.90;97.80;;;;;;5008102;28;20107;-67
2023/04/04 02:39:56;;;;;;;0.57;0.50;;;1.90;97.90;;;;;;5010919;28;20029;-67
2023/04/04 02:42:22;;;;;;;1.08;0.55;;;1.90;97.70;;;;;;5010558;28;20038;-67
2023/04/04 02:44:48;;;;;;;0.82;0.73;;;1.80;98.10;;;;;;5010405;28;20045;-67
2023/04/04 02:47:13;;;;;;;2.13;0.88;;;1.80;98.20;;;;;;5010156;28;20455;-67
2023/04/04 02:49:39;;;;;;;4.45;1.08;;;1.70;98.30;;;;;;5016159;28;20491;-67
2023/04/04 02:52:07;;;;;;;1.75;0.88;;;1.60;98.50;;;;;;5010493;28;20064;-67
2023/04/04 02:54:32;;;;;;;2.75;1.08;;;1.60;98.60;;;;;;5010303;28;20109;-67
2023/04/04 02:56:58;;;;;;;0.75;0.55;;;1.60;98.80;;;;;;5010842;28;20109;-67
2023/04/04 02:59:24;;;;;;;0.40;0.40;;;1.60;98.60;;;;;;4995365;28;20038;-67
2023/04/04 03:01:50;;;;;;;1.20;0.65;;;1.70;98.60;;;;;;5010517;28;20404;-68
2023/04/04 03:04:18;;;;;;;1.33;0.70;;;1.70;98.60;;;;;;5004605;28;20030;-67
2023/04/04 03:06:45;;;;;;;1.23;0.75;;;1.70;98.60;;;;;;5004458;28;20117;-67
2023/04/04 03:09:11;;;;;;;5.07;0.50;;;1.60;98.90;;;;;;5007645;28;20105;-67
2023/04/04 03:11:36;;;;;;;2.72;1.58;;;1.50;98.90;;;;;;5010381;28;20164;-67
2023/04/04 03:14:02;;;;;;;0.63;0.40;;;1.50;99.10;;;;;;5009796;28;20121;-67
2023/04/04 03:16:28;;;;;;;1.27;0.70;;;1.40;99.20;;;;;;4993831;28;20030;-67
2023/04/04 03:18:55;;;;;;;0.63;0.47;;;1.40;99.50;;;;;;4994001;28;20398;-67
2023/04/04 03:21:21;;;;;;;1.17;1.08;;;1.30;99.50;;;;;;5025220;28;20053;-67
2023/04/04 03:23:46;;;;;;;2.47;0.82;;;1.30;99.80;;;;;;5013544;28;20115;-67
2023/04/04 03:26:12;;;;;;;4.10;1.80;;;1.20;99.70;;;;;;5014077;28;20044;-67
2023/04/04 03:28:38;;;;;;;2.83;1.05;;;1.20;99.90;;;;;;5013415;28;20038;-67
2023/04/04 03:31:05;;;;;;;2.60;0.50;;;1.30;99.80;;;;;;5014183;28;20022;-67
2023/04/04 03:33:32;;;;;;;2.15;0.70;;;1.30;99.60;;;;;;5013175;28;20536;-67
2023/04/04 03:35:58;;;;;;;3.88;0.70;;;1.20;99.90;;;;;;5005731;28;20034;-67
2023/04/04 03:38:24;;;;;;;2.47;1.35;;;1.20;99.90;;;;;;5013514;28;20034;-66
2023/04/04 03:41:02;;;;;;;0.85;0.43;;;1.10;99.90;;;;;;5005497;28;20142;-66
2023/04/04 03:43:29;;;;;;;2.42;0.35;;;1.10;99.90;;;;;;5006460;28;20030;-67
2023/04/04 03:46:03;;;;;;;0.93;0.65;;;1.00;99.90;;;;;;5021592;28;20095;-66
2023/04/04 03:48:29;;;;;;;0.80;0.30;;;1.00;99.90;;;;;;5012945;28;20026;-67
2023/04/04 03:50:59;;;;;;;4.13;0.82;;;1.00;99.90;;;;;;5005031;28;20026;-67
2023/04/04 03:53:28;;;;;;;0.98;0.52;;;0.90;99.90;;;;;;5012899;28;20113;-67
2023/04/04 03:55:55;;;;;;;0.70;0.35;;;0.90;99.90;;;;;;5013643;28;20026;-67
2023/04/04 03:58:22;;;;;;;0.43;0.40;;;0.90;99.90;;;;;;4997593;28;20034;-67
2023/04/04 04:00:48;;;;;;;6.93;1.17;;;0.90;99.90;;;;;;5004146;28;20033;-66
2023/04/04 04:03:14;;;;;;;2.63;1.02;;;0.90;99.90;;;;;;5012814;28;20030;-66
2023/04/04 04:05:40;;;;;;;1.02;0.63;;;0.90;99.90;;;;;;4987552;28;20061;-67
2023/04/04 04:08:06;;;;;;;0.93;0.70;;;0.90;99.90;;;;;;5023525;23;20051;-67
2023/04/04 04:10:33;;;;;;;1.55;1.35;;;0.80;99.90;;;;;;5010311;28;20083;-66
2023/04/04 04:12:58;;;;;;;0.57;0.50;;;0.60;99.90;;;;;;5012409;28;20037;-65
2023/04/04 04:15:24;;;;;;;0.80;0.80;;;0.60;99.90;;;;;;5005573;28;20030;-67
2023/04/04 04:17:50;;;;;;;1.95;1.13;;;0.50;99.90;;;;;;5012529;28;20022;-67
2023/04/04 04:20:16;;;;;;;2.53;0.63;;;0.40;99.90;;;;;;5012727;28;20130;-67
2023/04/04 04:22:46;;;;;;;0.95;0.88;;;0.40;99.90;;;;;;5012436;28;20116;-66
2023/04/04 04:25:13;;;;;;;1.65;0.68;;;0.40;99.90;;;;;;5019199;28;20026;-67
2023/04/04 04:27:39;;;;;;;0.65;0.65;;;0.30;99.90;;;;;;5009265;28;20038;-66
2023/04/04 04:30:07;;;;;;;1.08;0.77;;;0.20;99.90;;;;;;5019555;28;20022;-67
2023/04/04 04:32:33;;;;;;;3.72;1.17;;;0.20;99.90;;;;;;5012185;28;20040;-67
2023/04/04 04:34:58;;;;;;;1.35;1.10;;;0.20;99.90;;;;;;5019221;28;20025;-66
2023/04/04 04:37:25;;;;;;;14.77;6.85;;;0.20;99.90;;;;;;5012069;28;20057;-66
2023/04/04 04:39:52;;;;;;;6.15;2.75;;;0.10;99.90;;;;;;5012649;28;20029;-66
2023/04/04 04:42:18;;;;;;;1.25;1.15;;;0.20;99.90;;;;;;5012503;28;20107;-66
2023/04/04 04:44:44;;;;;;;21.85;9.32;;;0.10;99.90;;;;;;5001975;28;20026;-66
2023/04/04 04:47:10;;;;;;;12.93;4.35;;;0.10;99.90;;;;;;5012584;28;20030;-66
2023/04/04 04:49:36;;;;;;;2.63;1.50;;;0.20;99.90;;;;;;5001799;28;20449;-66
2023/04/04 04:52:01;;;;;;;5.80;3.03;;;0.10;99.90;;;;;;5004486;28;20038;-66
2023/04/04 04:54:27;;;;;;;0.60;0.60;;;0.10;99.90;;;;;;5011317;28;20029;-66
2023/04/04 04:56:53;;;;;;;2.17;1.27;;;0.10;99.90;;;;;;5003589;28;20026;-66
2023/04/04 04:59:19;;;;;;;27.40;1.95;;;0.20;99.90;;;;;;5011004;28;20037;-67
2023/04/04 05:01:45;;;;;;;5.78;2.83;;;0.30;99.90;;;;;;5012194;28;20046;-66
2023/04/04 05:04:11;;;;;;;3.20;1.42;;;0.80;99.90;;;;;;5011155;28;20124;-66
2023/04/04 05:06:37;;;;;;;1.13;1.00;;;0.60;99.90;;;;;;5011815;28;20044;-66
2023/04/04 05:09:03;;;;;;;2.38;1.33;;;0.60;99.90;;;;;;5001695;28;20025;-66
2023/04/04 05:11:29;;;;;;;2.38;1.25;;;0.50;99.90;;;;;;5002652;28;20068;-66
2023/04/04 05:13:56;;;;;;;2.33;0.90;;;0.40;99.90;;;;;;5001583;28;20054;-66
2023/04/04 05:16:21;;;;;;;2.60;0.93;;;0.40;99.90;;;;;;5011693;28;20033;-68
2023/04/04 05:18:47;;;;;;;0.57;0.50;;;0.40;99.90;;;;;;5011481;28;20040;-68
2023/04/04 05:21:13;;;;;;;3.97;0.85;;;0.40;99.90;;;;;;5004652;28;20037;-68
2023/04/04 05:23:39;;;;;;;1.98;1.58;;;0.50;99.90;;;;;;5008333;28;20033;-67
2023/04/04 05:26:05;;;;;;;2.00;1.20;;;0.50;99.90;;;;;;5006857;28;20042;-68
2023/04/04 05:28:31;;;;;;;10.57;1.85;;;0.50;99.90;;;;;;5002910;28;20026;-68
2023/04/04 05:30:56;;;;;;;1.05;0.63;;;0.50;99.90;;;;;;5008027;28;20076;-68
2023/04/04 05:33:22;;;;;;;1.27;0.85;;;0.60;99.90;;;;;;5009838;28;20064;-68
2023/04/04 05:35:48;;;;;;;2.25;0.90;;;0.60;99.90;;;;;;4990251;28;20033;-68
2023/04/04 05:38:14;;;;;;;1.10;0.77;;;0.60;99.90;;;;;;5010142;28;20029;-68
2023/04/04 05:40:40;;;;;;;6.68;1.30;;;0.70;99.90;;;;;;4990284;28;20120;-69
2023/04/04 05:43:06;;;;;;;1.50;0.70;;;0.70;99.90;;;;;;5010873;28;20385;-69
2023/04/04 05:45:31;;;;;;;0.88;0.65;;;0.70;99.90;;;;;;5006222;28;20486;-68
2023/04/04 05:47:57;;;;;;;1.40;0.85;;;0.80;99.90;;;;;;4977213;28;20037;-67
2023/04/04 05:50:23;;;;;;;1.75;0.75;;;0.80;99.90;;;;;;5009382;28;20018;-68
2023/04/04 05:52:52;;;;;;;6.32;1.75;;;0.80;99.90;;;;;;4997220;28;20030;-67
2023/04/04 05:55:17;;;;;;;11.40;2.55;;;0.90;99.90;;;;;;5006976;28;20018;-68
2023/04/04 05:58:01;;;;;;;17.38;2.45;;;1.00;99.90;;;;;;5009519;28;20397;-68
2023/04/04 06:00:27;;;;;;;0.50;0.50;;;1.00;99.90;;;;;;5007524;28;20034;-68
2023/04/04 06:02:57;;;;;;;1.25;1.08;;;1.00;99.90;;;;;;5009583;28;20475;-67
2023/04/04 06:05:24;;;;;;;1.55;1.05;;;1.00;99.90;;;;;;5001087;28;20029;-69
2023/04/04 06:07:50;;;;;;;1.80;1.45;;;1.00;99.90;;;;;;5005192;28;20474;-68
2023/04/04 06:10:15;;;;;;;1.73;0.40;;;1.10;99.90;;;;;;5003203;28;20061;-68
2023/04/04 06:12:41;;;;;;;8.13;2.78;;;1.20;99.90;;;;;;5010452;28;20123;-67
2023/04/04 06:15:08;;;;;;;3.90;1.40;;;1.20;99.90;;;;;;5002241;28;20030;-68
2023/04/04 06:17:34;;;;;;;0.77;0.65;;;1.30;99.90;;;;;;5010175;28;20033;-69
2023/04/04 06:20:00;;;;;;;4.85;1.52;;;1.30;99.90;;;;;;4985051;28;20105;-69
2023/04/04 06:22:25;;;;;;;3.97;1.75;;;1.40;99.90;;;;;;5013325;28;20053;-69
2023/04/04 06:24:51;;;;;;;3.95;1.23;;;1.50;99.90;;;;;;4969530;28;20030;-69
2023/04/04 06:27:17;;;;;;;24.70;3.30;;;1.60;99.90;;;;;;5009850;28;20061;-69
2023/04/04 06:29:43;;;;;;;1.50;0.70;;;1.60;99.90;;;;;;5003189;28;20030;-69
2023/04/04 06:32:08;;;;;;;1.45;0.68;;;1.70;99.90;;;;;;5006843;28;20064;-70
2023/04/04 06:34:34;;;;;;;0.82;0.50;;;1.80;99.90;;;;;;5005925;28;20029;-68
2023/04/04 06:37:00;;;;;;;3.88;0.77;;;1.90;99.90;;;;;;5010434;28;20030;-69
2023/04/04 06:39:26;;;;;;;3.85;1.42;;;1.90;99.90;;;;;;5008715;28;20025;-69
2023/04/04 06:41:52;;;;;;;0.77;0.57;;;2.00;99.90;;;;;;5011554;28;20116;-68
2023/04/04 06:44:17;;;;;;;1.38;0.70;;;2.10;99.90;;;;;;5004393;28;20030;-69
2023/04/04 06:46:43;;;;;;;3.10;1.58;;;2.20;99.90;;;;;;5006614;28;20665;-69
2023/04/04 06:49:09;;;;;;;0.30;0.30;;;2.30;99.90;;;;;;5002282;28;20072;-69
2023/04/04 06:51:35;;;;;;;2.17;1.20;;;2.40;99.90;;;;;;5017113;28;20033;-69
2023/04/04 06:54:01;;;;;;;22.48;1.60;;;2.40;99.90;;;;;;5010789;28;20026;-68
2023/04/04 06:56:27;;;;;;;1.02;0.93;;;2.50;99.90;;;;;;4995661;28;20049;-68
2023/04/04 06:58:53;;;;;;;0.60;0.60;;;2.50;99.90;;;;;;5011014;28;20449;-69
2023/04/04 07:01:19;;;;;;;0.85;0.60;;;2.60;99.90;;;;;;5013417;28;20022;-69
2023/04/04 07:03:44;;;;;;;3.20;0.88;;;2.70;99.90;;;;;;4992632;28;20092;-68
2023/04/04 07:06:10;;;;;;;1.77;0.60;;;2.70;99.90;;;;;;5013285;28;20474;-69
2023/04/04 07:08:36;;;;;;;0.63;0.63;;;2.80;99.90;;;;;;5015149;28;20038;-70
2023/04/04 07:11:05;;;;;;;0.65;0.60;;;2.90;99.90;;;;;;5016618;28;20025;-69
2023/04/04 07:13:30;;;;;;;0.73;0.68;;;3.00;99.80;;;;;;5020630;28;20478;-69
2023/04/04 07:15:56;;;;;;;1.88;0.60;;;3.00;99.80;;;;;;5018522;28;20166;-69
2023/04/04 07:18:22;;;;;;;2.53;0.63;;;3.10;99.70;;;;;;4996336;28;20030;-69
2023/04/04 07:20:48;;;;;;;14.40;0.73;;;3.10;99.70;;;;;;5002554;28;20022;-69
2023/04/04 07:23:14;;;;;;;3.60;0.88;;;3.30;99.40;;;;;;4981706;28;20114;-70
2023/04/04 07:25:40;;;;;;;1.00;0.65;;;3.30;99.30;;;;;;5008773;28;20443;-69
2023/04/04 07:28:06;;;;;;;2.75;1.45;;;3.40;99.40;;;;;;5015029;28;20164;-69
2023/04/04 07:30:32;;;;;;;1.85;0.88;;;3.40;99.50;;;;;;5014267;28;20117;-69
2023/04/04 07:32:59;;;;;;;1.40;0.50;;;3.50;99.10;;;;;;4996481;28;20029;-69
2023/04/04 07:35:25;;;;;;;0.82;0.60;;;3.60;97.90;;;;;;4995403;28;20026;-69
2023/04/04 07:37:51;;;;;;;1.05;0.77;;;3.70;97.30;;;;;;4989094;28;20104;-69
2023/04/04 07:40:17;;;;;;;1.85;1.30;;;3.80;96.80;;;;;;4998892;28;20149;-69
2023/04/04 07:42:49;;;;;;;3.42;1.52;;;3.80;96.90;;;;;;5012498;28;20076;-69
2023/04/04 07:45:16;;;;;;;2.83;0.93;;;3.80;96.10;;;;;;5003076;28;20033;-69
2023/04/04 07:47:45;;;;;;;2.50;1.60;;;3.80;96.00;;;;;;4995208;28;20041;-69
2023/04/04 07:50:15;;;;;;;2.10;1.02;;;3.90;95.80;;;;;;4989669;28;20124;-69
2023/04/04 07:52:41;;;;;;;0.98;0.68;;;4.00;96.00;;;;;;5000067;28;20034;-68
2023/04/04 07:55:08;;;;;;;1.40;0.47;;;4.10;95.50;;;;;;4992931;28;20026;-69
2023/04/04 07:57:38;;;;;;;1.27;0.70;;;4.20;95.00;;;;;;4984664;28;20073;-69
2023/04/04 08:00:08;;;;;;;0.65;0.47;;;4.10;94.40;;;;;;5006138;28;20034;-68
2023/04/04 08:02:36;;;;;;;1.20;0.93;;;4.20;94.80;;;;;;5007644;28;20124;-69
2023/04/04 08:05:02;;;;;;;0.75;0.57;;;4.30;95.10;;;;;;5008695;28;20093;-69
2023/04/04 08:07:28;;;;;;;1.67;0.65;;;4.50;94.80;;;;;;5009096;28;20031;-69
2023/04/04 08:09:53;;;;;;;1.30;1.17;;;4.40;93.80;;;;;;5008600;28;20030;-69
2023/04/04 08:12:19;;;;;;;1.88;0.73;;;4.40;94.20;;;;;;5004644;28;20026;-69
2023/04/04 08:14:45;;;;;;;0.57;0.47;;;4.50;93.80;;;;;;5009053;28;20029;-69
2023/04/04 08:17:11;;;;;;;1.50;0.70;;;4.50;93.90;;;;;;5002938;28;20096;-69
2023/04/04 08:19:37;;;;;;;0.32;0.32;;;4.60;94.10;;;;;;5005727;28;20030;-69
2023/04/04 08:22:04;;;;;;;0.93;0.68;;;4.70;93.90;;;;;;4984683;28;20030;-68
2023/04/04 08:24:30;;;;;;;14.25;1.02;;;4.90;93.50;;;;;;5008402;28;20026;-69
2023/04/04 08:26:55;;;;;;;3.75;1.02;;;4.90;92.70;;;;;;5010092;28;20092;-69
2023/04/04 08:29:21;;;;;;;2.38;1.40;;;5.00;92.60;;;;;;5017368;28;20037;-68
2023/04/04 08:31:47;;;;;;;0.70;0.38;;;5.10;92.40;;;;;;5009526;28;20097;-69
2023/04/04 08:34:12;;;;;;;9.23;1.45;;;5.20;91.90;;;;;;5002772;28;20033;-69
2023/04/04 08:36:38;;;;;;;2.08;0.63;;;5.20;91.90;;;;;;5007870;28;20053;-68
2023/04/04 08:39:04;;;;;;;3.13;1.27;;;5.10;91.30;;;;;;4999728;28;20026;-68
2023/04/04 08:41:33;;;;;;;3.38;1.02;;;5.10;91.70;;;;;;5005946;28;20436;-67
2023/04/04 08:44:03;;;;;;;6.47;0.98;;;5.20;91.70;;;;;;5006704;28;20025;-69
2023/04/04 08:46:29;;;;;;;2.17;0.95;;;5.40;91.30;;;;;;5008667;28;20029;-70
2023/04/04 08:48:57;;;;;;;1.88;0.80;;;5.30;90.90;;;;;;5018695;28;20037;-69
2023/04/04 08:51:25;;;;;;;1.67;0.77;;;5.30;90.80;;;;;;5004896;28;20029;-69
2023/04/04 08:53:52;;;;;;;1.00;0.80;;;5.30;91.60;;;;;;5002184;28;20432;-66
2023/04/04 08:56:18;;;;;;;0.70;0.57;;;5.50;91.70;;;;;;4980618;28;20022;-67
2023/04/04 08:58:44;;;;;;;3.22;1.60;;;5.60;90.50;;;;;;5006456;28;20038;-67
2023/04/04 09:01:10;;;;;;;2.60;0.63;;;5.60;90.20;;;;;;5008241;28;20041;-69
2023/04/04 09:03:37;;;;;;;1.00;0.70;;;5.70;90.50;;;;;;5010737;28;20036;-66
2023/04/04 09:06:04;;;;;;;0.77;0.60;;;5.70;90.10;;;;;;4976731;28;20029;-71
2023/04/04 09:08:30;;;;;;;3.45;0.82;;;5.50;90.10;;;;;;5010745;28;20029;-68
2023/04/04 09:10:56;;;;;;;3.13;1.67;;;5.70;90.80;;;;;;4977208;28;20474;-71
2023/04/04 09:13:22;;;;;;;1.90;1.13;;;5.80;90.10;;;;;;5000494;28;20037;-69
2023/04/04 09:15:52;;;;;;;1.30;0.90;;;5.90;90.50;;;;;;5008385;28;20045;-78
2023/04/04 09:18:18;;;;;;;11.48;1.35;;;6.10;90.30;;;;;;5011165;28;20022;-71
2023/04/04 09:20:46;;;;;;;1.08;0.50;;;6.40;90.20;;;;;;5006416;28;20034;-72
2023/04/04 09:23:19;;;;;;;3.42;1.45;;;6.60;87.40;;;;;;5010142;28;20189;-72
2023/04/04 09:25:50;;;;;;;7.13;1.15;;;6.70;86.80;;;;;;4990180;28;20140;-71
2023/04/04 09:28:17;;;;;;;4.38;1.00;;;6.60;87.20;;;;;;4997737;28;20389;-71
2023/04/04 09:30:47;;;;;;;2.63;1.00;;;6.50;87.00;;;;;;4992233;28;20155;-70
2023/04/04 09:33:14;;;;;;;10.77;0.90;;;6.20;86.10;;;;;;5011189;28;20331;-72
2023/04/04 09:35:45;;;;;;;3.25;1.33;;;6.30;84.90;;;;;;4989601;28;20084;-70
2023/04/04 09:38:13;;;;;;;2.30;0.85;;;6.60;85.50;;;;;;4996974;28;20033;-70
2023/04/04 09:40:41;;;;;;;1.52;0.98;;;6.60;85.00;;;;;;4989602;28;20069;-71
2023/04/04 09:43:08;;;;;;;1.33;0.88;;;6.80;85.80;;;;;;4979419;28;20064;-71
2023/04/04 09:45:38;;;;;;;3.03;1.40;;;6.90;87.20;;;;;;4990094;28;20018;-71
2023/04/04 09:48:06;;;;;;;1.58;0.68;;;7.00;85.10;;;;;;4995630;28;20034;-71
2023/04/04 09:50:32;;;;;;;2.70;0.70;;;7.00;85.40;;;;;;4993997;28;20493;-71
2023/04/04 09:52:59;;;;;;;2.25;1.10;;;6.80;84.40;;;;;;4994572;28;20040;-70
2023/04/04 09:55:36;;;;;;;6.80;1.40;;;6.90;83.50;;;;;;4990777;28;20041;-71
2023/04/04 09:58:30;;;;;;;8.55;1.23;;;6.80;85.10;;;;;;4994635;28;20317;-69
2023/04/04 10:01:01;;;;;;;0.77;0.47;;;7.10;90.70;;;;;;5003410;28;20025;-69
2023/04/04 10:03:28;;;;;;;1.23;0.73;;;7.30;85.10;;;;;;4981511;28;20032;-71
2023/04/04 10:06:05;;;;;;;4.25;0.82;;;7.20;83.00;;;;;;5006809;28;20145;-72
2023/04/04 10:08:33;;;;;;;0.63;0.50;;;7.20;84.50;;;;;;5009838;28;20482;-73
2023/04/04 10:11:03;;;;;;;1.88;1.67;;;7.60;84.50;;;;;;5007272;28;20120;-72
2023/04/04 10:13:35;;;;;;;2.50;0.60;;;7.80;85.80;;;;;;4997988;28;20021;-74
2023/04/04 10:16:02;;;;;;;3.03;0.93;;;8.00;82.60;;;;;;5007837;28;20569;-72
2023/04/04 10:18:31;;;;;;;0.95;0.80;;;8.30;81.40;;;;;;4997721;28;20116;-72
2023/04/04 10:20:59;;;;;;;1.05;0.57;;;8.30;80.30;;;;;;5007347;28;20038;-71
2023/04/04 10:23:26;;;;;;;6.60;0.75;;;8.20;81.30;;;;;;4996541;28;20037;-71
2023/04/04 10:25:57;;;;;;;2.75;0.80;;;8.60;78.00;;;;;;4989670;28;20121;-73
2023/04/04 10:28:25;;;;;;;2.30;0.70;;;8.80;80.00;;;;;;4984316;28;20489;-73
2023/04/04 10:31:35;;;;;;;1.85;0.70;;;8.70;78.20;;;;;;4998985;28;20092;-74
2023/04/04 10:34:27;;;;;;;5.38;1.17;;;8.70;78.50;;;;;;5001577;28;20042;-71
2023/04/04 10:37:06;;;;;;;1.25;0.73;;;8.80;78.30;;;;;;5004769;28;20034;-72
2023/04/04 10:39:41;;;;;;;1.08;0.80;;;8.80;77.60;;;;;;5014202;28;20386;-71
2023/04/04 10:42:09;;;;;;;1.05;0.68;;;9.00;76.80;;;;;;5007688;28;20164;-71
2023/04/04 10:44:39;;;;;;;3.83;0.77;;;9.10;78.10;;;;;;5013815;28;20033;-70
2023/04/04 10:47:20;;;;;;;3.35;1.20;;;8.20;77.10;;;;;;5006895;28;20034;-71
2023/04/04 10:49:48;;;;;;;1.52;1.08;;;8.40;80.30;;;;;;5012556;28;20100;-71
2023/04/04 10:52:17;;;;;;;3.80;1.23;;;8.60;90.20;;;;;;5012040;28;20367;-71
2023/04/04 10:54:45;;;;;;;1.98;0.80;;;9.20;79.00;;;;;;5012189;28;20033;-71
2023/04/04 10:57:13;;;;;;;2.85;1.10;;;9.70;76.80;;;;;;5008778;28;20044;-71
2023/04/04 11:00:07;;;;;;;1.35;0.77;;;9.70;74.70;;;;;;5013330;28;20041;-71
2023/04/04 11:02:51;;;;;;;2.15;0.70;;;9.80;80.40;;;;;;5007122;28;20072;-71
2023/04/04 11:05:46;;;;;;;0.63;0.40;;;10.00;77.20;;;;;;5006440;28;20109;-71
2023/04/04 11:08:23;;;;;;;1.77;0.95;;;9.80;75.20;;;;;;5009579;28;20033;-72
2023/04/04 11:10:51;;;;;;;1.05;0.60;;;10.20;74.70;;;;;;5006635;28;20034;-71
2023/04/04 11:13:34;;;;;;;2.53;1.42;;;10.30;79.10;;;;;;4979757;28;20113;-71
2023/04/04 11:16:06;;;;;;;2.72;0.95;;;10.70;74.80;;;;;;4999394;28;20072;-72
2023/04/04 11:18:31;;;;;;;0.75;0.60;;;10.10;72.70;;;;;;4995429;28;20032;-72
2023/04/04 11:21:01;;;;;;;2.25;1.13;;;9.80;72.50;;;;;;5010404;28;20025;-72
2023/04/04 11:23:48;;;;;;;2.47;0.85;;;10.40;73.10;;;;;;5008819;28;20482;-72
2023/04/04 11:26:29;;;;;;;2.42;0.80;;;10.10;73.50;;;;;;5006829;28;20065;-72
2023/04/04 11:29:07;;;;;;;1.80;1.40;;;10.00;75.80;;;;;;5000663;28;20038;-72
2023/04/04 11:31:43;;;;;;;3.28;1.35;;;9.40;73.80;;;;;;4978542;28;20478;-71
2023/04/04 11:34:12;;;;;;;1.52;0.75;;;10.00;75.20;;;;;;5013996;28;20034;-73
2023/04/04 11:36:37;;;;;;;4.70;2.45;;;10.80;73.60;;;;;;5007952;28;20458;-73
2023/04/04 11:39:12;;;;;;;1.48;0.60;;;10.90;72.70;;;;;;5012574;28;20089;-72
2023/04/04 11:41:56;;;;;;;4.20;1.00;;;9.90;72.30;;;;;;5009882;28;20034;-73
2023/04/04 11:44:24;;;;;;;4.95;0.65;;;10.90;71.50;;;;;;5011775;28;20507;-73
2023/04/04 11:47:01;;;;;;;4.45;0.90;;;11.60;70.00;;;;;;5010286;28;20104;-72
2023/04/04 11:49:29;;;;;;;2.17;0.88;;;11.30;70.30;;;;;;5011877;28;20474;-73
2023/04/04 11:51:56;;;;;;;1.88;1.20;;;10.20;69.60;;;;;;5011508;28;20057;-72
2023/04/04 11:54:23;;;;;;;1.30;0.77;;;10.00;72.40;;;;;;5017899;28;20181;-71
2023/04/04 11:56:48;;;;;;;2.13;0.95;;;10.30;72.20;;;;;;5009805;28;20072;-72
2023/04/04 11:59:19;;;;;;;2.10;1.02;;;10.60;71.00;;;;;;5012208;28;20778;-72
2023/04/04 12:01:47;;;;;;;11.20;1.92;;;11.40;71.40;;;;;;4992749;28;20033;-73
2023/04/04 12:04:18;;;;;;;1.30;0.73;;;11.90;69.90;;;;;;5017515;28;20040;-71
2023/04/04 12:06:50;;;;;;;6.00;1.27;;;10.10;69.20;;;;;;5009435;28;20030;-72
2023/04/04 12:09:17;;;;;;;7.75;0.70;;;10.80;70.80;;;;;;5017665;28;20025;-73
2023/04/04 12:11:46;;;;;;;1.38;0.93;;;11.70;69.50;;;;;;4994424;28;20030;-73
2023/04/04 12:14:16;;;;;;;1.35;0.80;;;11.00;69.60;;;;;;5011763;28;20137;-73
2023/04/04 12:16:43;;;;;;;2.40;1.13;;;11.80;68.20;;;;;;4989555;28;20441;-73
2023/04/04 12:19:10;;;;;;;3.63;1.08;;;11.60;68.30;;;;;;5012279;28;20034;-73
2023/04/04 12:21:36;;;;;;;0.50;0.45;;;11.60;69.50;;;;;;4991529;28;20037;-71
2023/04/04 12:24:02;;;;;;;2.95;1.05;;;12.60;67.50;;;;;;5011188;28;20030;-73
2023/04/04 12:26:29;;;;;;;1.05;0.85;;;13.20;66.70;;;;;;4991552;28;20097;-73
2023/04/04 12:29:00;;;;;;;1.17;0.63;;;14.20;63.70;;;;;;5017114;28;20038;-73
2023/04/04 12:31:27;;;;;;;2.13;0.80;;;14.80;62.50;;;;;;4991600;28;20440;-73
2023/04/04 12:33:53;;;;;;;1.67;0.70;;;14.20;60.80;;;;;;5009338;28;20117;-71
2023/04/04 12:36:19;;;;;;;2.58;0.98;;;14.40;63.70;;;;;;5009043;28;20033;-72
2023/04/04 12:39:07;;;;;;;3.58;1.85;;;14.30;62.50;;;;;;5012140;28;20108;-74
2023/04/04 12:41:34;;;;;;;1.98;1.15;;;15.80;61.00;;;;;;4992174;28;20037;-73
2023/04/04 12:44:08;;;;;;;1.75;0.88;;;15.80;59.40;;;;;;5016861;28;20030;-75
2023/04/04 12:46:38;;;;;;;1.75;0.77;;;14.40;58.60;;;;;;4991124;28;20025;-73
2023/04/04 12:49:14;;;;;;;1.85;0.68;;;14.20;59.90;;;;;;5016674;28;20026;-74
2023/04/04 12:51:40;;;;;;;2.00;1.20;;;14.10;59.40;;;;;;5012622;28;20033;-53
2023/04/04 12:54:06;;;;;;;2.47;0.70;;;15.60;60.60;;;;;;5016868;28;20033;-49
2023/04/04 12:56:35;;;;;;;2.80;0.93;;;14.10;57.90;;;;;;5008746;28;20477;-55
2023/04/04 12:59:03;;;;;;;1.27;0.65;;;14.30;59.60;;;;;;5016788;28;20048;-54
2023/04/04 13:01:32;;;;;;;3.88;1.10;;;13.60;63.20;;;;;;5008408;28;20033;-55